Time;durP1;ratioP1;P1;durP2;ratioP2;P2;SDS_P1;SDS_P2;PMS_P1;PMS_P2;Temp;Humidity;BMP_temperature;BMP_pressure;BME280_temperature;BME280_humidity;BME280_pressure;Samples;Min_cycle;Max_cycle;Signal;HPM_P1;HPM_P2
2021/01/09 00:02:05;;;;;;;14.93;9.10;;;;;;;;;;5056135;28;20021;-62
2021/01/09 00:04:30;;;;;;;14.97;7.57;;;;;;;;;;5053856;28;20024;-63
2021/01/09 00:06:55;;;;;;;10.53;5.50;;;;;;;;;;5063695;28;20471;-63
2021/01/09 00:09:21;;;;;;;16.03;8.90;;;;;;;;;;5064899;28;20032;-62
2021/01/09 00:11:46;;;;;;;12.47;7.60;;;;;;;;;;5065899;28;20032;-62
2021/01/09 00:14:11;;;;;;;15.43;8.77;;;;;;;;;;5072976;28;20056;-63
2021/01/09 00:16:37;;;;;;;16.03;8.77;;;;;;;;;;5066468;28;20019;-63
2021/01/09 00:19:03;;;;;;;15.93;9.73;;;;;;;;;;5063406;28;20028;-63
2021/01/09 00:21:35;;;;;;;15.03;9.43;;;;;;;;;;5075809;28;20104;-63
2021/01/09 00:24:00;;;;;;;16.20;9.47;;;;;;;;;;5060326;28;20407;-62
2021/01/09 00:26:27;;;;;;;14.27;8.77;;;;;;;;;;5064138;28;20020;-63
2021/01/09 00:28:53;;;;;;;14.27;8.43;;;;;;;;;;5063915;28;20043;-63
2021/01/09 00:31:18;;;;;;;11.73;6.77;;;;;;;;;;5074764;28;20036;-63
2021/01/09 00:33:43;;;;;;;13.80;8.67;;;;;;;;;;5069017;28;20028;-63
2021/01/09 00:36:08;;;;;;;14.97;8.57;;;;;;;;;;5072381;28;20028;-63
2021/01/09 00:38:33;;;;;;;13.43;7.60;;;;;;;;;;5060421;28;20044;-63
2021/01/09 00:40:59;;;;;;;15.53;9.73;;;;;;;;;;5054842;28;20088;-63
2021/01/09 00:43:24;;;;;;;17.30;9.93;;;;;;;;;;5065436;28;20472;-63
2021/01/09 00:45:49;;;;;;;16.67;10.10;;;;;;;;;;5071611;28;20070;-63
2021/01/09 00:48:14;;;;;;;15.50;8.90;;;;;;;;;;5052166;28;20053;-62
2021/01/09 00:50:39;;;;;;;13.57;7.53;;;;;;;;;;5062903;28;20095;-62
2021/01/09 00:53:05;;;;;;;16.00;9.37;;;;;;;;;;5078760;28;20012;-62
2021/01/09 00:55:30;;;;;;;18.87;10.27;;;;;;;;;;5064164;28;20031;-63
2021/01/09 00:57:55;;;;;;;16.80;9.70;;;;;;;;;;5062575;28;20029;-62
2021/01/09 01:00:20;;;;;;;15.77;9.20;;;;;;;;;;5059606;28;20035;-62
2021/01/09 01:02:46;;;;;;;18.90;11.17;;;;;;;;;;5064705;28;20023;-63
2021/01/09 01:05:11;;;;;;;15.97;9.83;;;;;;;;;;5072205;28;20482;-64
2021/01/09 01:07:36;;;;;;;19.97;10.73;;;;;;;;;;5072595;28;20317;-64
2021/01/09 01:10:05;;;;;;;17.50;10.43;;;;;;;;;;5067530;28;20039;-64
2021/01/09 01:12:30;;;;;;;16.30;10.07;;;;;;;;;;5070836;28;20028;-63
2021/01/09 01:14:56;;;;;;;15.23;9.97;;;;;;;;;;5077723;28;20440;-64
2021/01/09 01:17:21;;;;;;;17.50;9.27;;;;;;;;;;5063443;28;20025;-63
2021/01/09 01:19:46;;;;;;;16.70;9.80;;;;;;;;;;5072458;28;20459;-63
2021/01/09 01:22:11;;;;;;;16.23;9.63;;;;;;;;;;5071734;28;20437;-63
2021/01/09 01:24:37;;;;;;;14.00;8.67;;;;;;;;;;5068050;28;20441;-64
2021/01/09 01:27:03;;;;;;;15.67;8.60;;;;;;;;;;5079370;28;20032;-64
2021/01/09 01:29:28;;;;;;;15.37;9.50;;;;;;;;;;5062851;28;20036;-64
2021/01/09 01:31:56;;;;;;;15.53;9.67;;;;;;;;;;5070450;28;20032;-63
2021/01/09 01:34:22;;;;;;;15.73;9.50;;;;;;;;;;5082174;28;20024;-64
2021/01/09 01:36:47;;;;;;;15.23;8.80;;;;;;;;;;5064149;28;20022;-64
2021/01/09 01:39:13;;;;;;;17.20;10.77;;;;;;;;;;5065294;28;20537;-63
2021/01/09 01:41:38;;;;;;;21.27;11.47;;;;;;;;;;5066011;28;20095;-63
2021/01/09 01:44:03;;;;;;;19.07;10.90;;;;;;;;;;5063739;28;20056;-63
2021/01/09 01:46:28;;;;;;;21.90;12.23;;;;;;;;;;5071515;28;20127;-64
2021/01/09 01:48:53;;;;;;;21.87;12.67;;;;;;;;;;5066036;28;20254;-63
2021/01/09 01:51:19;;;;;;;19.27;11.57;;;;;;;;;;5071937;28;20040;-63
2021/01/09 01:53:44;;;;;;;21.13;12.47;;;;;;;;;;5066528;28;20335;-63
2021/01/09 01:56:09;;;;;;;20.87;12.27;;;;;;;;;;5056337;28;20013;-63
2021/01/09 01:58:34;;;;;;;21.70;11.60;;;;;;;;;;5049893;28;20098;-63
2021/01/09 02:01:00;;;;;;;20.30;10.57;;;;;;;;;;5066342;28;20020;-63
2021/01/09 02:03:25;;;;;;;17.40;10.17;;;;;;;;;;5076427;28;20048;-63
2021/01/09 02:06:03;;;;;;;23.50;11.83;;;;;;;;;;5071706;28;20024;-64
2021/01/09 02:08:30;;;;;;;19.83;11.53;;;;;;;;;;5069301;28;20089;-63
2021/01/09 02:10:58;;;;;;;21.70;11.87;;;;;;;;;;5062598;28;20099;-63
2021/01/09 02:13:30;;;;;;;21.70;11.73;;;;;;;;;;5065446;28;20044;-63
2021/01/09 02:15:55;;;;;;;21.90;12.37;;;;;;;;;;5074283;28;20021;-63
2021/01/09 02:18:21;;;;;;;21.40;10.83;;;;;;;;;;5065087;28;20111;-63
2021/01/09 02:20:49;;;;;;;20.03;10.43;;;;;;;;;;5073928;28;20371;-63
2021/01/09 02:23:14;;;;;;;20.20;10.80;;;;;;;;;;5063198;28;20021;-63
2021/01/09 02:25:39;;;;;;;19.43;10.53;;;;;;;;;;5085977;28;20501;-63
2021/01/09 02:28:05;;;;;;;19.57;10.47;;;;;;;;;;5083263;28;20043;-63
2021/01/09 02:30:31;;;;;;;17.20;10.47;;;;;;;;;;5067177;28;20029;-63
2021/01/09 02:32:59;;;;;;;17.73;9.87;;;;;;;;;;5073408;28;20029;-63
2021/01/09 02:35:26;;;;;;;15.40;8.67;;;;;;;;;;5073889;28;20051;-63
2021/01/09 02:37:51;;;;;;;17.53;9.67;;;;;;;;;;5073504;28;20102;-63
2021/01/09 02:40:17;;;;;;;16.70;9.87;;;;;;;;;;5065298;28;20454;-62
2021/01/09 02:42:42;;;;;;;17.07;10.13;;;;;;;;;;5074245;28;20056;-63
2021/01/09 02:45:08;;;;;;;16.13;8.80;;;;;;;;;;5071500;28;20059;-63
2021/01/09 02:47:33;;;;;;;16.07;10.03;;;;;;;;;;5056059;28;20029;-63
2021/01/09 02:49:58;;;;;;;18.80;11.03;;;;;;;;;;5053349;28;20028;-64
2021/01/09 02:52:23;;;;;;;18.73;11.13;;;;;;;;;;5073048;28;20056;-63
2021/01/09 02:54:49;;;;;;;22.17;12.77;;;;;;;;;;5073514;28;20114;-63
2021/01/09 02:57:14;;;;;;;23.00;13.60;;;;;;;;;;5074252;28;20381;-64
2021/01/09 02:59:39;;;;;;;9.17;5.37;;;;;;;;;;5071987;28;20026;-63
2021/01/09 03:02:04;;;;;;;18.40;11.40;;;;;;;;;;5072927;28;20024;-64
2021/01/09 03:04:29;;;;;;;26.00;13.50;;;;;;;;;;5062565;28;20033;-63
2021/01/09 03:06:55;;;;;;;22.53;13.30;;;;;;;;;;5054836;28;20017;-63
2021/01/09 03:09:20;;;;;;;21.87;11.83;;;;;;;;;;5060329;28;20025;-64
2021/01/09 03:11:45;;;;;;;20.97;11.13;;;;;;;;;;5074671;28;20036;-63
2021/01/09 03:14:10;;;;;;;21.87;12.47;;;;;;;;;;5070373;28;20032;-63
2021/01/09 03:16:36;;;;;;;22.57;12.77;;;;;;;;;;5074481;28;20020;-64
2021/01/09 03:19:01;;;;;;;18.90;10.27;;;;;;;;;;5068365;28;20024;-64
2021/01/09 03:21:26;;;;;;;18.43;10.73;;;;;;;;;;5073879;28;20024;-64
2021/01/09 03:23:51;;;;;;;17.57;9.30;;;;;;;;;;5072556;28;20055;-64
2021/01/09 03:26:17;;;;;;;18.90;11.43;;;;;;;;;;5080698;28;20035;-63
2021/01/09 03:28:42;;;;;;;20.53;12.23;;;;;;;;;;5091453;28;20029;-63
2021/01/09 03:31:07;;;;;;;18.10;10.93;;;;;;;;;;5068934;28;20071;-63
2021/01/09 03:33:32;;;;;;;20.13;12.13;;;;;;;;;;5086774;28;20016;-63
2021/01/09 03:35:58;;;;;;;19.47;10.07;;;;;;;;;;5083413;28;20028;-62
2021/01/09 03:38:23;;;;;;;21.20;11.73;;;;;;;;;;5071951;28;20532;-62
2021/01/09 03:40:48;;;;;;;19.00;10.90;;;;;;;;;;5068967;28;20039;-63
2021/01/09 03:43:13;;;;;;;16.80;10.87;;;;;;;;;;5065411;28;20012;-63
2021/01/09 03:45:39;;;;;;;16.17;9.73;;;;;;;;;;5070366;28;20012;-63
2021/01/09 03:48:04;;;;;;;17.10;10.57;;;;;;;;;;5073797;28;20016;-63
2021/01/09 03:50:29;;;;;;;18.83;11.33;;;;;;;;;;5066829;28;20025;-63
2021/01/09 03:52:55;;;;;;;20.27;11.73;;;;;;;;;;5073353;28;20028;-63
2021/01/09 03:55:20;;;;;;;20.77;11.97;;;;;;;;;;5072530;28;20497;-62
2021/01/09 03:57:45;;;;;;;15.93;9.33;;;;;;;;;;5072928;28;20024;-63
2021/01/09 04:00:10;;;;;;;18.33;10.77;;;;;;;;;;5070721;28;20112;-63
2021/01/09 04:02:36;;;;;;;20.63;12.57;;;;;;;;;;5070077;28;20066;-63
2021/01/09 04:05:01;;;;;;;21.70;11.37;;;;;;;;;;5052402;28;20025;-62
2021/01/09 04:07:27;;;;;;;24.40;12.87;;;;;;;;;;5059824;28;20020;-62
2021/01/09 04:09:52;;;;;;;21.70;13.13;;;;;;;;;;5058978;28;20439;-63
2021/01/09 04:12:17;;;;;;;23.47;14.33;;;;;;;;;;5060387;28;20121;-63
2021/01/09 04:14:43;;;;;;;25.63;13.70;;;;;;;;;;5072203;28;20070;-63
2021/01/09 04:17:08;;;;;;;18.43;10.70;;;;;;;;;;5079764;28;20043;-63
2021/01/09 04:19:33;;;;;;;20.97;12.80;;;;;;;;;;5079718;28;20107;-63
2021/01/09 04:21:58;;;;;;;19.87;11.70;;;;;;;;;;5073134;28;20023;-63
2021/01/09 04:24:24;;;;;;;21.03;11.73;;;;;;;;;;5065669;28;20127;-63
2021/01/09 04:26:53;;;;;;;23.07;13.07;;;;;;;;;;5070850;28;20104;-62
2021/01/09 04:29:18;;;;;;;21.23;11.70;;;;;;;;;;5077151;28;20471;-62
2021/01/09 04:31:43;;;;;;;25.70;14.33;;;;;;;;;;5054325;28;20052;-62
2021/01/09 04:34:08;;;;;;;16.60;9.53;;;;;;;;;;5052134;28;20063;-63
2021/01/09 04:36:33;;;;;;;19.47;11.47;;;;;;;;;;5064869;28;20094;-63
2021/01/09 04:38:59;;;;;;;26.33;14.40;;;;;;;;;;5080897;28;20052;-63
2021/01/09 04:41:24;;;;;;;23.33;12.70;;;;;;;;;;5072669;28;20096;-63
2021/01/09 04:43:49;;;;;;;24.67;14.10;;;;;;;;;;5072221;28;20027;-63
2021/01/09 04:46:16;;;;;;;18.03;10.10;;;;;;;;;;5052565;28;20048;-63
2021/01/09 04:48:41;;;;;;;23.77;14.13;;;;;;;;;;5049717;28;20035;-63
2021/01/09 04:51:06;;;;;;;20.90;12.07;;;;;;;;;;5066592;28;20363;-63
2021/01/09 04:53:33;;;;;;;22.67;12.83;;;;;;;;;;5070615;28;20531;-63
2021/01/09 04:55:58;;;;;;;21.33;11.70;;;;;;;;;;5067058;28;20086;-64
2021/01/09 04:58:23;;;;;;;20.07;11.93;;;;;;;;;;5070512;28;20402;-64
2021/01/09 05:00:53;;;;;;;14.63;7.87;;;;;;;;;;5069592;28;20020;-63
2021/01/09 05:03:19;;;;;;;12.37;6.60;;;;;;;;;;5081208;28;20027;-63
2021/01/09 05:05:45;;;;;;;13.33;5.70;;;;;;;;;;5081895;28;20025;-63
2021/01/09 05:08:10;;;;;;;18.00;9.13;;;;;;;;;;5052696;28;20024;-63
2021/01/09 05:10:36;;;;;;;16.67;8.57;;;;;;;;;;5048050;28;20112;-63
2021/01/09 05:13:03;;;;;;;23.97;14.07;;;;;;;;;;5055596;28;20020;-63
2021/01/09 05:15:35;;;;;;;20.17;11.97;;;;;;;;;;5070380;28;20170;-63
2021/01/09 05:18:00;;;;;;;13.23;7.77;;;;;;;;;;5069565;28;20020;-63
2021/01/09 05:20:26;;;;;;;15.73;9.37;;;;;;;;;;5060323;28;20451;-64
2021/01/09 05:22:51;;;;;;;8.20;4.63;;;;;;;;;;5070366;28;20418;-63
2021/01/09 05:25:17;;;;;;;14.53;8.83;;;;;;;;;;5051653;28;20095;-63
2021/01/09 05:27:44;;;;;;;14.43;8.53;;;;;;;;;;5062953;28;20387;-63
2021/01/09 05:30:10;;;;;;;11.73;6.80;;;;;;;;;;5049383;28;20052;-64
2021/01/09 05:32:35;;;;;;;12.40;6.90;;;;;;;;;;5070385;28;20537;-63
2021/01/09 05:35:01;;;;;;;16.93;9.93;;;;;;;;;;5059081;28;20031;-63
2021/01/09 05:37:26;;;;;;;8.83;3.40;;;;;;;;;;5069611;28;20024;-63
2021/01/09 05:39:55;;;;;;;10.70;5.80;;;;;;;;;;5068496;28;20013;-63
2021/01/09 05:42:25;;;;;;;12.70;8.23;;;;;;;;;;5070923;28;20033;-63
2021/01/09 05:44:51;;;;;;;15.03;8.17;;;;;;;;;;5052181;28;20099;-63
2021/01/09 05:47:18;;;;;;;5.57;3.23;;;;;;;;;;5071130;28;20059;-63
2021/01/09 05:49:44;;;;;;;11.60;6.37;;;;;;;;;;5067453;28;20020;-64
2021/01/09 05:52:10;;;;;;;13.47;8.17;;;;;;;;;;5056358;28;20031;-64
2021/01/09 05:54:36;;;;;;;14.40;8.30;;;;;;;;;;5063094;28;20048;-64
2021/01/09 05:57:02;;;;;;;12.87;6.73;;;;;;;;;;5073830;28;20048;-64
2021/01/09 05:59:27;;;;;;;15.60;8.73;;;;;;;;;;5057248;28;20383;-64
2021/01/09 06:01:56;;;;;;;8.80;3.83;;;;;;;;;;5066258;28;20032;-63
2021/01/09 06:04:25;;;;;;;14.90;8.67;;;;;;;;;;5095741;28;20024;-63
2021/01/09 06:06:53;;;;;;;13.97;9.20;;;;;;;;;;5075740;28;20024;-64
2021/01/09 06:09:24;;;;;;;16.43;10.17;;;;;;;;;;5061871;28;20028;-63
2021/01/09 06:11:53;;;;;;;18.10;9.77;;;;;;;;;;5074413;28;20020;-63
2021/01/09 06:14:19;;;;;;;19.80;11.03;;;;;;;;;;5064692;28;20056;-64
2021/01/09 06:16:45;;;;;;;20.73;11.97;;;;;;;;;;5073168;28;20023;-64
2021/01/09 06:19:10;;;;;;;18.77;10.37;;;;;;;;;;5078301;28;20024;-63
2021/01/09 06:21:36;;;;;;;19.33;11.07;;;;;;;;;;5083004;28;20419;-63
2021/01/09 06:24:03;;;;;;;21.40;11.97;;;;;;;;;;5081030;28;20040;-63
2021/01/09 06:26:28;;;;;;;8.77;5.00;;;;;;;;;;5074155;28;20039;-63
2021/01/09 06:29:06;;;;;;;18.73;10.77;;;;;;;;;;5067501;28;20017;-63
2021/01/09 06:31:32;;;;;;;13.97;7.97;;;;;;;;;;5062733;28;20160;-63
2021/01/09 06:34:00;;;;;;;15.47;9.40;;;;;;;;;;5074882;28;20025;-63
2021/01/09 06:36:25;;;;;;;18.13;10.00;;;;;;;;;;5072883;28;20028;-63
2021/01/09 06:38:55;;;;;;;11.50;6.60;;;;;;;;;;5077914;28;20097;-62
2021/01/09 06:41:22;;;;;;;13.73;7.77;;;;;;;;;;5074760;28;20566;-63
2021/01/09 06:43:49;;;;;;;14.30;8.73;;;;;;;;;;5066258;28;20025;-63
2021/01/09 06:46:30;;;;;;;11.40;7.07;;;;;;;;;;5065546;28;20056;-63
2021/01/09 06:48:56;;;;;;;12.77;6.67;;;;;;;;;;5080391;28;20020;-63
2021/01/09 06:51:37;;;;;;;17.90;10.13;;;;;;;;;;5077417;28;21279;-63
2021/01/09 06:54:14;;;;;;;10.30;5.83;;;;;;;;;;5063627;28;20508;-63
2021/01/09 06:56:39;;;;;;;20.93;10.93;;;;;;;;;;5064817;28;20571;-64
2021/01/09 06:59:05;;;;;;;17.93;10.03;;;;;;;;;;5055221;28;20104;-63
2021/01/09 07:01:37;;;;;;;20.90;11.77;;;;;;;;;;5071961;28;20460;-63
2021/01/09 07:04:02;;;;;;;21.33;12.20;;;;;;;;;;5074608;28;20490;-63
2021/01/09 07:06:56;;;;;;;12.00;7.07;;;;;;;;;;5073947;28;20103;-63
2021/01/09 07:09:25;;;;;;;22.27;12.90;;;;;;;;;;5062017;28;20016;-64
2021/01/09 07:11:52;;;;;;;22.43;12.87;;;;;;;;;;5054384;28;20490;-63
2021/01/09 07:14:17;;;;;;;20.13;11.43;;;;;;;;;;5061547;28;20483;-63
2021/01/09 07:16:43;;;;;;;20.90;11.70;;;;;;;;;;5069759;28;20096;-63
2021/01/09 07:19:09;;;;;;;21.93;11.77;;;;;;;;;;5071233;28;20046;-63
2021/01/09 07:21:35;;;;;;;20.13;11.37;;;;;;;;;;5073090;28;20137;-63
2021/01/09 07:24:01;;;;;;;19.27;11.23;;;;;;;;;;5057924;28;20044;-63
2021/01/09 07:26:27;;;;;;;23.33;15.13;;;;;;;;;;5059075;28;20032;-63
2021/01/09 07:28:53;;;;;;;19.97;10.70;;;;;;;;;;5058143;28;20032;-63
2021/01/09 07:31:23;;;;;;;17.73;10.47;;;;;;;;;;5054273;28;20027;-63
2021/01/09 07:33:53;;;;;;;17.70;9.80;;;;;;;;;;5065981;28;20033;-63
2021/01/09 07:36:19;;;;;;;17.97;10.57;;;;;;;;;;5053885;28;20022;-62
2021/01/09 07:38:47;;;;;;;17.70;9.70;;;;;;;;;;5051209;28;20106;-62
2021/01/09 07:41:51;;;;;;;12.53;6.90;;;;;;;;;;5064174;28;20024;-62
2021/01/09 07:44:18;;;;;;;17.80;9.10;;;;;;;;;;5006352;28;20032;-62
2021/01/09 07:47:10;;;;;;;18.57;10.67;;;;;;;;;;4994026;28;20033;-62
2021/01/09 07:49:36;;;;;;;18.57;11.67;;;;;;;;;;4988845;28;20045;-62
2021/01/09 07:52:02;;;;;;;17.10;9.00;;;;;;;;;;4998460;28;20237;-62
2021/01/09 07:54:38;;;;;;;18.37;10.37;;;;;;;;;;4997868;28;20544;-62
2021/01/09 07:57:04;;;;;;;11.50;6.37;;;;;;;;;;4999120;28;20117;-62
2021/01/09 07:59:29;;;;;;;19.03;11.93;;;;;;;;;;5012862;28;20108;-63
2021/01/09 08:01:54;;;;;;;17.50;10.43;;;;;;;;;;4996591;28;20037;-64
2021/01/09 08:04:20;;;;;;;15.73;9.47;;;;;;;;;;4994336;28;20030;-64
2021/01/09 08:06:45;;;;;;;17.07;9.83;;;;;;;;;;4995705;28;20037;-61
2021/01/09 08:09:10;;;;;;;9.73;3.07;;;;;;;;;;4979784;28;20196;-63
2021/01/09 08:11:45;;;;;;;18.80;10.90;;;;;;;;;;5009119;28;20030;-62
2021/01/09 08:14:11;;;;;;;19.58;10.85;;;;;;;;;;5014948;28;20120;-63
2021/01/09 08:16:36;;;;;;;16.93;10.17;;;;;;;;;;5061655;28;20067;-63
2021/01/09 08:19:17;;;;;;;18.87;10.23;;;;;;;;;;5057086;28;20021;-63
2021/01/09 08:21:46;;;;;;;14.93;8.60;;;;;;;;;;5058563;28;20479;-63
2021/01/09 08:24:21;;;;;;;9.33;5.03;;;;;;;;;;5055213;28;20572;-63
2021/01/09 08:26:50;;;;;;;7.88;4.55;;;;;;;;;;5059111;28;20166;-63
2021/01/09 08:29:16;;;;;;;17.03;9.60;;;;;;;;;;5058717;28;20047;-63
2021/01/09 08:31:41;;;;;;;16.07;9.27;;;;;;;;;;5063930;28;20020;-63
2021/01/09 08:34:09;;;;;;;7.73;4.47;;;;;;;;;;5065466;28;20379;-63
2021/01/09 08:36:35;;;;;;;15.40;9.27;;;;;;;;;;5069514;28;20023;-63
2021/01/09 08:39:05;;;;;;;17.60;10.57;;;;;;;;;;5069107;28;20063;-63
2021/01/09 08:41:37;;;;;;;10.70;4.70;;;;;;;;;;5068449;28;20067;-61
2021/01/09 08:44:10;;;;;;;17.77;10.47;;;;;;;;;;5053952;28;20025;-63
2021/01/09 08:46:36;;;;;;;17.57;9.93;;;;;;;;;;5052951;28;20025;-63
2021/01/09 08:49:01;;;;;;;16.57;9.23;;;;;;;;;;5049358;28;20024;-63
2021/01/09 08:51:28;;;;;;;19.43;10.70;;;;;;;;;;5053338;28;20505;-63
2021/01/09 08:54:02;;;;;;;16.70;10.30;;;;;;;;;;5069296;28;20518;-63
2021/01/09 08:56:29;;;;;;;12.30;7.03;;;;;;;;;;5069413;28;20070;-63
2021/01/09 08:58:54;;;;;;;15.10;8.83;;;;;;;;;;5064104;28;20270;-63
2021/01/09 09:01:27;;;;;;;13.07;7.43;;;;;;;;;;5052603;28;20021;-63
2021/01/09 09:03:55;;;;;;;16.90;9.93;;;;;;;;;;5051542;28;20388;-62
2021/01/09 09:06:25;;;;;;;15.40;8.67;;;;;;;;;;5065729;28;20021;-63
2021/01/09 09:08:52;;;;;;;15.10;8.07;;;;;;;;;;5058360;28;20469;-62
2021/01/09 09:11:17;;;;;;;15.70;9.60;;;;;;;;;;5055095;28;20340;-62
2021/01/09 09:13:42;;;;;;;18.47;10.20;;;;;;;;;;5071444;28;20024;-62
2021/01/09 09:16:15;;;;;;;12.40;7.30;;;;;;;;;;5070183;28;20089;-62
2021/01/09 09:18:40;;;;;;;13.40;5.70;;;;;;;;;;5065436;28;20586;-62
2021/01/09 09:21:07;;;;;;;15.97;10.20;;;;;;;;;;5066691;28;20103;-63
2021/01/09 09:23:33;;;;;;;11.17;6.50;;;;;;;;;;5067328;28;20154;-64
2021/01/09 09:26:16;;;;;;;7.67;3.63;;;;;;;;;;5066935;28;20111;-62
2021/01/09 09:28:42;;;;;;;7.20;3.37;;;;;;;;;;5067463;28;20016;-64
2021/01/09 09:31:16;;;;;;;10.00;6.07;;;;;;;;;;5069065;28;20028;-63
2021/01/09 09:33:41;;;;;;;14.77;8.50;;;;;;;;;;5061202;28;20052;-63
2021/01/09 09:36:07;;;;;;;13.10;7.20;;;;;;;;;;5064741;28;20098;-62
2021/01/09 09:38:32;;;;;;;10.37;6.37;;;;;;;;;;5064543;28;20032;-63
2021/01/09 09:41:04;;;;;;;7.87;5.10;;;;;;;;;;5074778;28;20123;-63
2021/01/09 09:43:29;;;;;;;12.07;7.30;;;;;;;;;;5065766;28;20391;-64
2021/01/09 09:45:55;;;;;;;5.67;3.33;;;;;;;;;;5064744;28;20029;-64
2021/01/09 09:48:26;;;;;;;7.23;4.13;;;;;;;;;;5066588;28;20039;-64
2021/01/09 09:50:59;;;;;;;13.87;6.93;;;;;;;;;;5068825;28;20419;-63
2021/01/09 09:53:24;;;;;;;7.90;4.77;;;;;;;;;;5062538;28;20386;-63
2021/01/09 09:55:49;;;;;;;6.00;3.37;;;;;;;;;;5056865;28;20124;-63
2021/01/09 09:58:15;;;;;;;6.33;4.37;;;;;;;;;;5065119;28;20116;-65
2021/01/09 10:00:41;;;;;;;11.33;4.30;;;;;;;;;;5061672;28;20427;-64
2021/01/09 10:03:06;;;;;;;4.20;1.87;;;;;;;;;;5053402;28;20028;-63
2021/01/09 10:05:31;;;;;;;7.73;3.63;;;;;;;;;;5070854;28;20889;-64
2021/01/09 10:08:09;;;;;;;7.17;5.10;;;;;;;;;;5069915;28;20086;-64
2021/01/09 10:10:35;;;;;;;10.37;4.23;;;;;;;;;;5055077;28;20087;-64
2021/01/09 10:13:00;;;;;;;9.07;5.77;;;;;;;;;;5051515;28;20101;-64
2021/01/09 10:15:25;;;;;;;10.20;6.63;;;;;;;;;;5051303;28;20029;-64
2021/01/09 10:17:54;;;;;;;9.37;5.83;;;;;;;;;;5054323;28;20066;-63
2021/01/09 10:20:19;;;;;;;14.70;7.83;;;;;;;;;;5062879;28;20027;-63
2021/01/09 10:22:44;;;;;;;5.67;3.57;;;;;;;;;;5056267;28;20021;-64
2021/01/09 10:25:10;;;;;;;10.00;5.57;;;;;;;;;;5059505;28;20494;-64
2021/01/09 10:27:35;;;;;;;7.00;4.50;;;;;;;;;;5057402;28;20025;-64
2021/01/09 10:30:00;;;;;;;8.27;4.67;;;;;;;;;;5061642;28;20074;-64
2021/01/09 10:32:27;;;;;;;4.20;2.83;;;;;;;;;;5067880;28;20074;-64
2021/01/09 10:34:52;;;;;;;8.43;4.67;;;;;;;;;;5063249;28;20065;-64
2021/01/09 10:37:17;;;;;;;12.00;7.27;;;;;;;;;;5074340;28;20052;-60
2021/01/09 10:39:42;;;;;;;7.80;4.27;;;;;;;;;;5070184;28;20095;-62
2021/01/09 10:42:07;;;;;;;11.57;7.00;;;;;;;;;;5056032;28;20020;-62
2021/01/09 10:44:33;;;;;;;8.43;4.50;;;;;;;;;;5057624;28;20073;-63
2021/01/09 10:46:58;;;;;;;11.47;8.40;;;;;;;;;;5065351;28;20463;-62
2021/01/09 10:49:23;;;;;;;8.07;4.67;;;;;;;;;;5060626;28;20035;-62
2021/01/09 10:51:48;;;;;;;9.40;4.70;;;;;;;;;;5069825;28;20025;-63
2021/01/09 10:54:14;;;;;;;11.37;7.63;;;;;;;;;;5052670;28;20026;-63
2021/01/09 10:56:46;;;;;;;9.70;5.20;;;;;;;;;;5061395;28;20031;-63
2021/01/09 10:59:11;;;;;;;12.83;8.40;;;;;;;;;;5069403;28;20020;-63
2021/01/09 11:01:36;;;;;;;10.30;7.10;;;;;;;;;;5070155;28;20150;-62
2021/01/09 11:04:02;;;;;;;14.13;6.67;;;;;;;;;;5067590;28;20520;-62
2021/01/09 11:06:27;;;;;;;16.07;9.87;;;;;;;;;;5061192;28;20497;-62
2021/01/09 11:08:52;;;;;;;12.93;7.57;;;;;;;;;;5059900;28;20031;-63
2021/01/09 11:11:19;;;;;;;8.63;5.40;;;;;;;;;;5068210;28;20024;-62
2021/01/09 11:13:44;;;;;;;11.83;8.57;;;;;;;;;;5069270;28;20035;-63
2021/01/09 11:16:09;;;;;;;9.67;5.50;;;;;;;;;;5062081;28;20391;-63
2021/01/09 11:18:35;;;;;;;5.27;3.53;;;;;;;;;;5050260;28;20503;-62
2021/01/09 11:21:00;;;;;;;9.70;5.63;;;;;;;;;;5063050;28;20457;-63
2021/01/09 11:23:25;;;;;;;9.67;5.70;;;;;;;;;;5058493;28;20074;-63
2021/01/09 11:25:51;;;;;;;9.03;4.83;;;;;;;;;;5054211;28;20376;-64
2021/01/09 11:28:16;;;;;;;12.37;8.77;;;;;;;;;;5055712;28;20037;-64
2021/01/09 11:30:43;;;;;;;12.07;8.03;;;;;;;;;;5053509;28;20008;-64
2021/01/09 11:33:09;;;;;;;7.17;3.67;;;;;;;;;;5058040;28;20124;-63
2021/01/09 11:35:34;;;;;;;8.17;4.73;;;;;;;;;;5056483;28;20112;-63
2021/01/09 11:37:59;;;;;;;11.50;6.43;;;;;;;;;;5059526;28;20025;-64
2021/01/09 11:40:25;;;;;;;10.90;6.47;;;;;;;;;;5065666;28;20443;-64
2021/01/09 11:42:50;;;;;;;12.03;8.40;;;;;;;;;;5059620;28;20025;-63
2021/01/09 11:45:16;;;;;;;9.10;5.17;;;;;;;;;;5057340;28;20025;-62
2021/01/09 11:47:42;;;;;;;11.73;7.30;;;;;;;;;;5063311;28;20017;-63
2021/01/09 11:50:07;;;;;;;11.97;7.87;;;;;;;;;;5062712;28;20082;-63
2021/01/09 11:52:33;;;;;;;11.97;6.50;;;;;;;;;;5071353;28;20040;-63
2021/01/09 11:54:58;;;;;;;12.33;8.20;;;;;;;;;;5053317;28;20033;-63
2021/01/09 11:57:24;;;;;;;15.43;7.87;;;;;;;;;;5053140;28;20017;-64
2021/01/09 11:59:50;;;;;;;12.10;7.23;;;;;;;;;;5052453;28;20033;-64
2021/01/09 12:02:15;;;;;;;8.93;5.53;;;;;;;;;;5054110;28;20050;-63
2021/01/09 12:04:40;;;;;;;9.63;5.10;;;;;;;;;;5069237;28;20029;-63
2021/01/09 12:07:05;;;;;;;8.07;4.83;;;;;;;;;;5066631;28;20387;-63
2021/01/09 12:09:30;;;;;;;12.77;8.60;;;;;;;;;;5061367;28;20016;-63
2021/01/09 12:11:56;;;;;;;10.17;4.97;;;;;;;;;;5065917;28;20102;-63
2021/01/09 12:14:21;;;;;;;13.40;9.17;;;;;;;;;;5070686;28;20020;-62
2021/01/09 12:16:46;;;;;;;12.13;8.13;;;;;;;;;;5067422;28;20005;-63
2021/01/09 12:19:12;;;;;;;11.77;7.73;;;;;;;;;;5059159;28;20017;-62
2021/01/09 12:21:37;;;;;;;14.80;8.57;;;;;;;;;;5069265;28;20016;-62
2021/01/09 12:24:03;;;;;;;12.60;8.77;;;;;;;;;;5057798;28;20500;-63
2021/01/09 12:26:28;;;;;;;16.70;10.33;;;;;;;;;;5066561;28;20039;-63
2021/01/09 12:28:53;;;;;;;12.77;7.83;;;;;;;;;;5059786;28;20045;-63
2021/01/09 12:31:18;;;;;;;14.53;9.37;;;;;;;;;;5064210;28;20060;-63
2021/01/09 12:33:45;;;;;;;13.73;8.47;;;;;;;;;;5064666;28;20025;-62
2021/01/09 12:36:15;;;;;;;14.67;9.47;;;;;;;;;;5066709;28;20024;-63
2021/01/09 12:38:40;;;;;;;15.17;9.87;;;;;;;;;;5053287;28;20012;-63
2021/01/09 12:41:05;;;;;;;10.90;7.57;;;;;;;;;;5060576;28;20073;-63
2021/01/09 12:43:30;;;;;;;6.43;3.70;;;;;;;;;;5052151;28;20074;-63
2021/01/09 12:45:56;;;;;;;9.10;4.40;;;;;;;;;;5067084;28;20021;-63
2021/01/09 12:48:24;;;;;;;12.83;8.37;;;;;;;;;;5061744;28;20028;-63
2021/01/09 12:50:50;;;;;;;12.93;7.93;;;;;;;;;;5063097;28;20365;-62
2021/01/09 12:53:15;;;;;;;12.40;7.73;;;;;;;;;;5071348;28;20035;-63
2021/01/09 12:55:41;;;;;;;10.60;5.67;;;;;;;;;;5071996;28;20460;-63
2021/01/09 12:58:06;;;;;;;12.53;7.27;;;;;;;;;;5071055;28;20069;-64
2021/01/09 13:00:31;;;;;;;7.13;4.43;;;;;;;;;;5057404;28;20217;-64
2021/01/09 13:02:56;;;;;;;8.40;5.30;;;;;;;;;;5069012;28;20052;-64
2021/01/09 13:05:22;;;;;;;4.57;2.73;;;;;;;;;;5071605;28;20107;-64
2021/01/09 13:07:47;;;;;;;6.33;4.13;;;;;;;;;;5064066;28;20063;-63
2021/01/09 13:10:12;;;;;;;9.53;5.67;;;;;;;;;;5067316;28;20020;-63
2021/01/09 13:12:37;;;;;;;9.10;5.87;;;;;;;;;;5069656;28;20028;-63
2021/01/09 13:15:03;;;;;;;11.23;7.33;;;;;;;;;;5068390;28;20028;-63
2021/01/09 13:17:28;;;;;;;6.07;3.57;;;;;;;;;;5058099;28;20549;-63
2021/01/09 13:19:54;;;;;;;11.80;7.30;;;;;;;;;;5048923;28;20040;-64
2021/01/09 13:22:20;;;;;;;12.43;7.70;;;;;;;;;;5051630;28;20419;-63
2021/01/09 13:24:46;;;;;;;13.10;8.33;;;;;;;;;;5052661;28;20146;-62
2021/01/09 13:27:12;;;;;;;5.47;3.57;;;;;;;;;;5055460;28;20109;-63
2021/01/09 13:29:38;;;;;;;11.47;7.63;;;;;;;;;;5048845;28;20161;-63
2021/01/09 13:32:05;;;;;;;10.30;7.47;;;;;;;;;;5057849;28;20024;-63
2021/01/09 13:34:30;;;;;;;12.73;5.87;;;;;;;;;;5053579;28;20102;-63
2021/01/09 13:36:55;;;;;;;11.03;7.63;;;;;;;;;;5055867;28;20485;-63
2021/01/09 13:39:21;;;;;;;12.13;7.00;;;;;;;;;;5048271;28;20116;-62
2021/01/09 13:41:46;;;;;;;12.30;7.77;;;;;;;;;;5054988;28;20024;-61
2021/01/09 13:44:11;;;;;;;11.07;7.20;;;;;;;;;;5063609;28;20033;-62
2021/01/09 13:46:36;;;;;;;5.67;3.33;;;;;;;;;;5069941;28;20024;-64
2021/01/09 13:49:03;;;;;;;15.63;8.57;;;;;;;;;;5054144;28;20042;-64
2021/01/09 13:51:29;;;;;;;13.73;8.67;;;;;;;;;;5057440;28;20021;-64
2021/01/09 13:53:55;;;;;;;12.33;6.70;;;;;;;;;;5054629;28;20032;-65
2021/01/09 13:56:32;;;;;;;7.07;4.97;;;;;;;;;;5055409;28;20020;-64
2021/01/09 13:58:57;;;;;;;11.17;7.30;;;;;;;;;;5051330;28;20031;-64
2021/01/09 14:01:23;;;;;;;11.47;7.70;;;;;;;;;;5063152;28;20017;-64
2021/01/09 14:03:48;;;;;;;8.03;4.70;;;;;;;;;;5055842;28;20020;-64
2021/01/09 14:06:15;;;;;;;13.10;8.07;;;;;;;;;;5053006;28;20013;-64
2021/01/09 14:08:40;;;;;;;5.90;2.83;;;;;;;;;;5057629;28;20013;-63
2021/01/09 14:11:05;;;;;;;14.63;8.30;;;;;;;;;;5062091;28;20020;-65
2021/01/09 14:13:30;;;;;;;6.37;3.93;;;;;;;;;;5072106;28;20354;-63
2021/01/09 14:15:55;;;;;;;5.23;2.67;;;;;;;;;;5072837;28;20021;-63
2021/01/09 14:18:21;;;;;;;7.30;3.93;;;;;;;;;;5070442;28;20031;-63
2021/01/09 14:20:46;;;;;;;11.93;7.63;;;;;;;;;;5073851;28;20031;-64
2021/01/09 14:23:11;;;;;;;12.53;7.90;;;;;;;;;;5059197;28;20013;-64
2021/01/09 14:25:36;;;;;;;12.83;7.43;;;;;;;;;;5070184;28;20388;-64